createdAt,value
2023-07-09T00:00:58.596Z,100336.78
2023-07-09T00:03:26.060Z,100349.13
2023-07-09T00:05:53.253Z,100348.19
2023-07-09T00:08:30.786Z,100358.78
2023-07-09T00:10:59.146Z,100353.62
2023-07-09T00:13:27.302Z,100351.88
2023-07-09T00:15:56.688Z,100357.75
2023-07-09T00:18:24.824Z,100360.44
2023-07-09T00:20:51.999Z,100354.34
2023-07-09T00:23:21.247Z,100357.94
2023-07-09T00:25:48.768Z,100354.34
2023-07-09T00:28:16.812Z,100355.47
2023-07-09T00:30:45.164Z,100352.53
2023-07-09T00:33:15.449Z,100340.97
2023-07-09T00:35:43.205Z,100337.41
2023-07-09T00:38:14.079Z,100353.38
2023-07-09T00:40:46.681Z,100344.75
2023-07-09T00:43:15.934Z,100347.09
2023-07-09T00:45:43.453Z,100348.78
2023-07-09T00:48:15.149Z,100354.00
2023-07-09T00:50:47.240Z,100359.09
2023-07-09T00:53:19.385Z,100356.81
2023-07-09T00:55:47.436Z,100341.94
2023-07-09T00:58:16.504Z,100348.44
2023-07-09T01:00:49.632Z,100348.09
2023-07-09T01:03:28.414Z,100345.75
2023-07-09T01:05:56.679Z,100345.59
2023-07-09T01:08:24.582Z,100351.91
2023-07-09T01:10:51.776Z,100350.22
2023-07-09T01:13:20.776Z,100353.50
2023-07-09T01:15:48.366Z,100355.16
2023-07-09T01:18:15.798Z,100352.09
2023-07-09T01:20:43.031Z,100350.72
2023-07-09T01:23:10.674Z,100345.59
2023-07-09T01:25:40.002Z,100344.12
2023-07-09T01:28:07.262Z,100346.13
2023-07-09T01:30:39.073Z,100342.13
2023-07-09T01:33:07.325Z,100347.22
2023-07-09T01:35:36.500Z,100353.09
2023-07-09T01:38:03.691Z,100345.50
2023-07-09T01:40:32.067Z,100344.19
2023-07-09T01:43:01.395Z,100344.97
2023-07-09T01:45:29.347Z,100356.34
2023-07-09T01:47:56.936Z,100360.53
2023-07-09T01:50:26.169Z,100352.66
2023-07-09T01:52:54.433Z,100358.56
2023-07-09T01:55:21.951Z,100361.22
2023-07-09T01:57:52.271Z,100362.50
2023-07-09T02:00:19.910Z,100360.78
2023-07-09T02:02:49.807Z,100369.19
2023-07-09T02:05:21.658Z,100370.00
2023-07-09T02:07:49.276Z,100373.00
2023-07-09T02:10:17.827Z,100366.03
2023-07-09T02:12:45.279Z,100367.66
2023-07-09T02:15:12.937Z,100368.72
2023-07-09T02:17:40.580Z,100376.22
2023-07-09T02:20:09.543Z,100374.31
2023-07-09T02:22:37.208Z,100377.66
2023-07-09T02:25:05.217Z,100377.31
2023-07-09T02:27:32.517Z,100380.94
2023-07-09T02:29:59.706Z,100377.47
2023-07-09T02:32:27.837Z,100384.47
2023-07-09T02:34:55.704Z,100391.88
2023-07-09T02:37:25.029Z,100384.91
2023-07-09T02:39:52.630Z,100391.44
2023-07-09T02:42:21.359Z,100394.44
2023-07-09T02:44:48.739Z,100377.28
2023-07-09T02:47:16.310Z,100386.66
2023-07-09T02:49:43.815Z,100383.28
2023-07-09T02:52:11.037Z,100373.66
2023-07-09T02:54:38.532Z,100380.63
2023-07-09T02:57:05.816Z,100381.44
2023-07-09T02:59:33.879Z,100380.72
2023-07-09T03:02:01.697Z,100384.03
2023-07-09T03:04:29.048Z,100384.25
2023-07-09T03:06:56.796Z,100392.87
2023-07-09T03:09:24.515Z,100391.81
2023-07-09T03:11:51.802Z,100387.50
2023-07-09T03:14:19.004Z,100394.94
2023-07-09T03:16:46.500Z,100398.53
2023-07-09T03:19:13.835Z,100394.97
2023-07-09T03:21:41.069Z,100401.97
2023-07-09T03:24:09.594Z,100396.00
2023-07-09T03:26:37.085Z,100399.16
2023-07-09T03:29:04.282Z,100400.88
2023-07-09T03:31:32.270Z,100406.69
2023-07-09T03:33:59.609Z,100409.13
2023-07-09T03:36:26.771Z,100403.72
2023-07-09T03:38:54.266Z,100410.72
2023-07-09T03:41:21.474Z,100414.03
2023-07-09T03:43:51.267Z,100407.13
2023-07-09T03:46:18.728Z,100408.12
2023-07-09T03:48:46.030Z,100414.62
2023-07-09T03:51:13.373Z,100405.59
2023-07-09T03:53:40.854Z,100410.63
2023-07-09T03:56:08.096Z,100406.59
2023-07-09T03:58:36.175Z,100407.75
2023-07-09T04:01:03.790Z,100409.41
2023-07-09T04:03:31.436Z,100409.50
2023-07-09T04:05:58.656Z,100406.44
2023-07-09T04:08:26.965Z,100401.59
2023-07-09T04:10:56.071Z,100404.16
2023-07-09T04:13:24.316Z,100397.28
2023-07-09T04:15:51.649Z,100402.66
2023-07-09T04:18:19.156Z,100407.25
2023-07-09T04:20:50.730Z,100404.53
2023-07-09T04:23:19.158Z,100404.47
2023-07-09T04:25:46.483Z,100408.78
2023-07-09T04:28:14.398Z,100407.19
2023-07-09T04:30:46.479Z,100400.25
2023-07-09T04:33:13.650Z,100395.34
2023-07-09T04:35:41.092Z,100400.41
2023-07-09T04:38:09.517Z,100403.88
2023-07-09T04:40:37.063Z,100406.41
2023-07-09T04:43:04.289Z,100404.81
2023-07-09T04:45:31.756Z,100401.50
2023-07-09T04:47:59.008Z,100395.91
2023-07-09T04:50:26.460Z,100403.19
2023-07-09T04:52:53.991Z,100410.16
2023-07-09T04:55:22.813Z,100403.31
2023-07-09T04:57:50.054Z,100408.78
2023-07-09T05:00:17.562Z,100407.19
2023-07-09T05:02:44.844Z,100410.00
2023-07-09T05:05:13.075Z,100410.09
2023-07-09T05:07:41.072Z,100412.69
2023-07-09T05:10:08.401Z,100408.34
2023-07-09T05:12:35.681Z,100410.25
2023-07-09T05:15:03.252Z,100407.59
2023-07-09T05:17:31.592Z,100416.47
2023-07-09T05:19:58.850Z,100421.81
2023-07-09T05:22:26.360Z,100419.28
2023-07-09T05:24:53.576Z,100419.34
2023-07-09T05:27:20.780Z,100411.34
2023-07-09T05:29:48.308Z,100412.38
2023-07-09T05:32:15.480Z,100409.75
2023-07-09T05:34:42.657Z,100415.94
2023-07-09T05:37:10.146Z,100410.69
2023-07-09T05:39:37.379Z,100412.44
2023-07-09T05:42:04.825Z,100411.62
2023-07-09T05:44:32.434Z,100415.16
2023-07-09T05:46:59.695Z,100420.41
2023-07-09T05:49:26.916Z,100416.91
2023-07-09T05:51:54.508Z,100416.00
2023-07-09T05:54:22.559Z,100410.72
2023-07-09T05:56:49.866Z,100408.94
2023-07-09T05:59:17.381Z,100418.59
2023-07-09T06:01:44.604Z,100420.28
2023-07-09T06:04:15.014Z,100422.00
2023-07-09T06:06:42.691Z,100417.53
2023-07-09T06:09:09.947Z,100421.03
2023-07-09T06:11:37.437Z,100416.50
2023-07-09T06:14:04.690Z,100418.25
2023-07-09T06:16:32.841Z,100421.69
2023-07-09T06:19:00.399Z,100419.75
2023-07-09T06:21:27.599Z,100419.78
2023-07-09T06:23:54.785Z,100420.47
2023-07-09T06:26:22.319Z,100424.56
2023-07-09T06:28:50.002Z,100418.28
2023-07-09T06:31:17.278Z,100423.41
2023-07-09T06:33:44.774Z,100431.38
2023-07-09T06:36:11.988Z,100425.91
2023-07-09T06:38:39.182Z,100425.00
2023-07-09T06:41:06.698Z,100424.69
2023-07-09T06:43:33.972Z,100412.66
2023-07-09T06:46:01.497Z,100415.94
2023-07-09T06:48:29.660Z,100416.78
2023-07-09T06:50:57.085Z,100415.59
2023-07-09T06:53:24.735Z,100413.56
2023-07-09T06:55:54.111Z,100411.72
2023-07-09T06:58:21.396Z,100412.19
2023-07-09T07:00:50.103Z,100415.53
2023-07-09T07:03:17.856Z,100417.91
2023-07-09T07:05:45.931Z,100421.38
2023-07-09T07:08:14.737Z,100414.94
2023-07-09T07:10:42.333Z,100422.63
2023-07-09T07:13:12.055Z,100421.88
2023-07-09T07:15:39.400Z,100417.66
2023-07-09T07:18:07.143Z,100417.59
2023-07-09T07:20:34.641Z,100413.78
2023-07-09T07:23:01.991Z,100406.19
2023-07-09T07:25:31.605Z,100410.66
2023-07-09T07:27:58.852Z,100418.84
2023-07-09T07:30:26.485Z,100411.31
2023-07-09T07:32:54.044Z,100410.88
2023-07-09T07:35:21.292Z,100416.41
2023-07-09T07:37:48.476Z,100409.03
2023-07-09T07:40:15.988Z,100408.88
2023-07-09T07:42:43.184Z,100405.44
2023-07-09T07:45:10.497Z,100405.84
2023-07-09T07:47:38.664Z,100413.00
2023-07-09T07:50:06.877Z,100411.84
2023-07-09T07:52:34.658Z,100408.38
2023-07-09T07:55:02.171Z,100409.94
2023-07-09T07:57:29.368Z,100409.44
2023-07-09T07:59:56.615Z,100407.56
2023-07-09T08:02:24.492Z,100408.44
2023-07-09T08:04:52.096Z,100411.72
2023-07-09T08:07:19.852Z,100411.72
2023-07-09T08:09:49.980Z,100405.47
2023-07-09T08:12:17.878Z,100405.69
2023-07-09T08:14:46.201Z,100407.78
2023-07-09T08:17:13.411Z,100402.59
2023-07-09T08:19:51.454Z,100400.63
2023-07-09T08:22:21.763Z,100401.34
2023-07-09T08:24:49.930Z,100404.81
2023-07-09T08:27:17.097Z,100402.69
2023-07-09T08:29:44.367Z,100403.78
2023-07-09T08:32:12.321Z,100396.84
2023-07-09T08:34:50.128Z,100398.12
2023-07-09T08:37:27.476Z,100401.50
2023-07-09T08:39:54.808Z,100397.84
2023-07-09T08:42:23.466Z,100399.50
2023-07-09T08:44:53.149Z,100401.16
2023-07-09T08:47:20.464Z,100396.75
2023-07-09T08:49:49.104Z,100390.63
2023-07-09T08:52:20.423Z,100394.59
2023-07-09T08:54:47.657Z,100392.25
2023-07-09T08:57:26.388Z,100391.38
2023-07-09T08:59:55.123Z,100387.50
2023-07-09T09:02:27.087Z,100392.59
2023-07-09T09:04:54.570Z,100395.38
2023-07-09T09:07:41.768Z,100384.97
2023-07-09T09:10:19.311Z,100384.03
2023-07-09T09:12:55.341Z,100388.03
2023-07-09T09:15:22.863Z,100385.19
2023-07-09T09:17:51.538Z,100388.41
2023-07-09T09:20:22.392Z,100382.72
2023-07-09T09:22:51.714Z,100375.81
2023-07-09T09:25:29.527Z,100377.72
2023-07-09T09:27:57.007Z,100378.16
2023-07-09T09:30:25.184Z,100384.03
2023-07-09T09:32:53.828Z,100378.50
2023-07-09T09:35:22.230Z,100378.03
2023-07-09T09:37:53.340Z,100379.69
2023-07-09T09:40:24.744Z,100383.50
2023-07-09T09:42:52.957Z,100380.94
2023-07-09T09:45:21.875Z,100384.94
2023-07-09T09:47:49.774Z,100377.78
2023-07-09T09:50:18.169Z,100377.62
2023-07-09T09:52:50.481Z,100373.94
2023-07-09T09:55:21.618Z,100370.94
2023-07-09T09:57:52.684Z,100371.28
2023-07-09T10:00:22.707Z,100366.84
2023-07-09T10:02:50.340Z,100379.59
2023-07-09T10:05:18.116Z,100376.69
2023-07-09T10:07:57.567Z,100363.19
2023-07-09T10:10:25.227Z,100374.75
2023-07-09T10:12:53.360Z,100371.53
2023-07-09T10:15:24.575Z,100364.28
2023-07-09T10:17:55.190Z,100367.78
2023-07-09T10:20:28.166Z,100370.91
2023-07-09T10:22:58.944Z,100363.03
2023-07-09T10:25:26.206Z,100363.94
2023-07-09T10:27:53.378Z,100370.34
2023-07-09T10:30:35.985Z,100366.63
2023-07-09T10:33:09.190Z,100365.75
2023-07-09T10:35:42.226Z,100360.38
2023-07-09T10:38:19.078Z,100356.06
2023-07-09T10:40:49.844Z,100356.34
2023-07-09T10:43:22.121Z,100363.13
2023-07-09T10:45:59.953Z,100359.66
2023-07-09T10:48:30.236Z,100359.50
2023-07-09T10:50:57.694Z,100355.78
2023-07-09T10:53:33.309Z,100352.63
2023-07-09T10:56:01.981Z,100353.34
2023-07-09T10:58:34.535Z,100355.41
2023-07-09T11:01:02.570Z,100351.78
2023-07-09T11:03:42.264Z,100347.59
2023-07-09T11:06:12.147Z,100349.88
2023-07-09T11:08:39.792Z,100353.56
2023-07-09T11:11:11.340Z,100358.31
2023-07-09T11:13:51.849Z,100349.97
2023-07-09T11:16:28.517Z,100357.00
2023-07-09T11:18:57.759Z,100343.97
2023-07-09T11:21:24.979Z,100351.03
2023-07-09T11:23:53.048Z,100343.38
2023-07-09T11:26:27.652Z,100339.97
2023-07-09T11:29:13.722Z,100336.31
2023-07-09T11:31:42.108Z,100339.59
2023-07-09T11:34:10.546Z,100333.66
2023-07-09T11:36:56.362Z,100337.34
2023-07-09T11:39:30.652Z,100335.94
2023-07-09T11:41:57.963Z,100327.38
2023-07-09T11:44:32.092Z,100325.69
2023-07-09T11:47:18.512Z,100319.31
2023-07-09T11:50:02.380Z,100320.44
2023-07-09T11:52:38.158Z,100330.72
2023-07-09T11:55:24.452Z,100330.97
2023-07-09T11:57:58.444Z,100326.09
2023-07-09T12:00:27.021Z,100328.09
2023-07-09T12:02:54.517Z,100323.25
2023-07-09T12:05:28.839Z,100321.94
2023-07-09T12:07:57.880Z,100315.34
2023-07-09T12:10:25.660Z,100318.00
2023-07-09T12:12:56.959Z,100315.22
2023-07-09T12:15:26.051Z,100319.94
2023-07-09T12:17:54.384Z,100306.84
2023-07-09T12:20:21.932Z,100304.22
2023-07-09T12:22:49.577Z,100300.25
2023-07-09T12:25:21.078Z,100303.56
2023-07-09T12:27:48.798Z,100301.19
2023-07-09T12:30:16.469Z,100296.25
2023-07-09T12:32:44.192Z,100300.72
2023-07-09T12:35:13.141Z,100300.81
2023-07-09T12:37:40.679Z,100295.16
2023-07-09T12:40:12.511Z,100288.72
2023-07-09T12:42:39.763Z,100290.72
2023-07-09T12:45:09.534Z,100293.88
2023-07-09T12:47:36.767Z,100290.97
2023-07-09T12:50:09.366Z,100289.53
2023-07-09T12:52:36.873Z,100288.84
2023-07-09T12:55:04.181Z,100284.94
2023-07-09T12:57:32.029Z,100278.38
2023-07-09T12:59:59.767Z,100274.09
2023-07-09T13:02:30.469Z,100279.66
2023-07-09T13:05:02.314Z,100281.75
2023-07-09T13:07:36.070Z,100270.63
2023-07-09T13:10:35.876Z,100274.97
2023-07-09T13:13:03.869Z,100272.72
2023-07-09T13:15:33.093Z,100268.44
2023-07-09T13:18:01.525Z,100263.50
2023-07-09T13:20:29.428Z,100260.66
2023-07-09T13:22:56.850Z,100263.38
2023-07-09T13:25:36.716Z,100258.75
2023-07-09T13:28:22.100Z,100259.28
2023-07-09T13:30:49.822Z,100255.41
2023-07-09T13:33:18.949Z,100264.00
2023-07-09T13:35:46.758Z,100254.91
2023-07-09T13:38:15.083Z,100260.53
2023-07-09T13:40:45.380Z,100252.25
2023-07-09T13:43:16.818Z,100254.03
2023-07-09T13:45:44.389Z,100246.78
2023-07-09T13:48:13.689Z,100250.25
2023-07-09T13:50:41.080Z,100245.88
2023-07-09T13:53:15.986Z,100248.66
2023-07-09T13:55:43.301Z,100245.62
2023-07-09T13:58:11.816Z,100246.72
2023-07-09T14:00:40.027Z,100243.25
2023-07-09T14:03:19.488Z,100243.72
2023-07-09T14:05:47.371Z,100239.12
2023-07-09T14:08:16.224Z,100241.00
2023-07-09T14:10:43.768Z,100238.41
2023-07-09T14:13:14.734Z,100238.47
2023-07-09T14:15:42.465Z,100234.22
2023-07-09T14:18:12.661Z,100244.59
2023-07-09T14:20:39.947Z,100236.34
2023-07-09T14:23:09.415Z,100231.09
2023-07-09T14:25:36.633Z,100233.59
2023-07-09T14:28:05.587Z,100236.38
2023-07-09T14:30:33.179Z,100237.84
2023-07-09T14:33:00.506Z,100242.31
2023-07-09T14:35:27.967Z,100233.56
2023-07-09T14:37:56.148Z,100232.50
2023-07-09T14:40:23.698Z,100240.50
2023-07-09T14:42:51.273Z,100231.03
2023-07-09T14:45:18.852Z,100236.69
2023-07-09T14:47:46.536Z,100226.13
2023-07-09T14:50:13.794Z,100221.03
2023-07-09T14:52:42.280Z,100224.91
2023-07-09T14:55:14.233Z,100219.94
2023-07-09T14:57:41.690Z,100218.03
2023-07-09T15:00:13.239Z,100213.34
2023-07-09T15:02:41.017Z,100214.19
2023-07-09T15:05:16.124Z,100214.19
2023-07-09T15:07:43.517Z,100208.47
2023-07-09T15:10:13.634Z,100215.25
2023-07-09T15:12:40.865Z,100211.16
2023-07-09T15:15:25.196Z,100212.53
2023-07-09T15:17:52.736Z,100209.87
2023-07-09T15:20:25.183Z,100209.06
2023-07-09T15:22:52.937Z,100209.34
2023-07-09T15:25:20.828Z,100206.78
2023-07-09T15:27:48.161Z,100207.16
2023-07-09T15:30:16.800Z,100210.66
2023-07-09T15:32:44.872Z,100208.19
2023-07-09T15:35:12.273Z,100207.56
2023-07-09T15:37:39.750Z,100210.81
2023-07-09T15:40:29.280Z,100211.78
2023-07-09T15:42:58.453Z,100208.00
2023-07-09T15:45:25.741Z,100206.56
2023-07-09T15:47:53.976Z,100204.16
2023-07-09T15:50:23.192Z,100207.50
2023-07-09T15:52:51.121Z,100208.44
2023-07-09T15:55:21.013Z,100199.16
2023-07-09T15:57:49.355Z,100202.41
2023-07-09T16:00:20.877Z,100199.84
2023-07-09T16:02:49.847Z,100195.97
2023-07-09T16:05:20.045Z,100192.06
2023-07-09T16:07:47.372Z,100201.34
2023-07-09T16:10:14.993Z,100199.25
2023-07-09T16:12:46.320Z,100195.97
2023-07-09T16:15:15.328Z,100196.16
2023-07-09T16:17:43.292Z,100202.97
2023-07-09T16:20:11.475Z,100200.69
2023-07-09T16:22:42.503Z,100198.00
2023-07-09T16:25:13.863Z,100196.41
2023-07-09T16:27:42.337Z,100194.97
2023-07-09T16:30:14.118Z,100199.34
2023-07-09T16:32:41.306Z,100191.28
2023-07-09T16:35:12.055Z,100204.34
2023-07-09T16:37:39.872Z,100201.41
2023-07-09T16:40:13.380Z,100194.81
2023-07-09T16:42:43.194Z,100196.00
2023-07-09T16:45:11.926Z,100198.25
2023-07-09T16:47:39.138Z,100190.88
2023-07-09T16:50:06.856Z,100192.19
2023-07-09T16:52:34.123Z,100196.87
2023-07-09T16:55:01.395Z,100190.25
2023-07-09T16:57:29.576Z,100188.09
2023-07-09T16:59:59.271Z,100189.75
2023-07-09T17:02:27.919Z,100193.53
2023-07-09T17:04:56.150Z,100187.53
2023-07-09T17:07:23.433Z,100194.47
2023-07-09T17:09:50.746Z,100188.12
2023-07-09T17:12:18.355Z,100196.06
2023-07-09T17:14:45.713Z,100194.50
2023-07-09T17:17:22.564Z,100195.00
2023-07-09T17:19:50.194Z,100191.28
2023-07-09T17:22:21.405Z,100191.69
2023-07-09T17:24:48.785Z,100185.63
2023-07-09T17:27:16.323Z,100185.19
2023-07-09T18:48:44.171Z,100194.22
2023-07-09T18:51:13.156Z,100194.22
2023-07-09T18:53:41.251Z,100199.72
2023-07-09T18:56:09.167Z,100196.22
2023-07-09T18:58:38.996Z,100206.25
2023-07-09T19:01:19.485Z,100214.06
2023-07-09T19:03:47.818Z,100216.25
2023-07-09T19:06:15.414Z,100210.41
2023-07-09T19:08:43.568Z,100210.31
2023-07-09T19:11:11.339Z,100219.25
2023-07-09T19:13:38.762Z,100217.66
2023-07-09T19:16:22.727Z,100217.66
2023-07-09T19:18:50.815Z,100223.25
2023-07-09T19:21:19.090Z,100217.66
2023-07-09T19:23:46.569Z,100224.66
2023-07-09T19:26:14.238Z,100227.44
2023-07-09T19:28:41.789Z,100222.59
2023-07-09T19:31:09.400Z,100217.53
2023-07-09T19:33:38.628Z,100215.88
2023-07-09T19:36:24.296Z,100215.50
2023-07-09T19:38:53.061Z,100226.53
2023-07-09T19:41:21.680Z,100221.47
2023-07-09T19:43:49.266Z,100222.16
2023-07-09T19:46:22.467Z,100210.19
2023-07-09T19:48:50.252Z,100220.22
2023-07-09T19:51:18.577Z,100224.00
2023-07-09T19:53:46.895Z,100223.03
2023-07-09T19:56:14.987Z,100218.59
2023-07-09T19:58:43.611Z,100223.19
2023-07-09T20:01:16.307Z,100218.44
2023-07-09T20:03:44.206Z,100220.59
2023-07-09T20:06:12.802Z,100221.13
2023-07-09T20:08:40.589Z,100233.41
2023-07-09T20:11:13.841Z,100229.44
2023-07-09T20:13:41.797Z,100222.63
2023-07-09T20:16:24.062Z,100227.13
2023-07-09T20:18:53.738Z,100227.50
2023-07-09T20:21:23.998Z,100225.00
2023-07-09T20:23:52.086Z,100231.94
2023-07-09T20:26:19.643Z,100235.72
2023-07-09T20:28:47.709Z,100239.09
2023-07-09T20:31:21.575Z,100235.84
2023-07-09T20:33:59.644Z,100231.56
2023-07-09T20:36:27.242Z,100236.56
2023-07-09T20:38:55.069Z,100241.63
2023-07-09T20:41:23.896Z,100240.19
2023-07-09T20:43:51.732Z,100240.34
2023-07-09T20:46:20.479Z,100234.75
2023-07-09T20:48:48.651Z,100232.59
2023-07-09T20:51:16.398Z,100238.03
2023-07-09T20:53:44.363Z,100235.03
2023-07-09T20:56:15.583Z,100237.91
2023-07-09T20:58:43.360Z,100240.81
2023-07-09T21:01:16.940Z,100246.31
2023-07-09T21:03:44.409Z,100248.00
2023-07-09T21:06:17.279Z,100247.34
2023-07-09T21:08:44.827Z,100246.63
2023-07-09T21:11:12.521Z,100256.09
2023-07-09T21:13:40.068Z,100259.22
2023-07-09T21:16:18.038Z,100256.63
2023-07-09T21:18:45.766Z,100247.19
2023-07-09T21:21:13.496Z,100251.66
2023-07-09T21:23:41.183Z,100255.88
2023-07-09T21:26:15.622Z,100263.09
2023-07-09T21:28:43.049Z,100268.50
2023-07-09T21:31:18.447Z,100264.34
2023-07-09T21:33:46.038Z,100261.59
2023-07-09T21:36:13.707Z,100263.50
2023-07-09T21:38:41.113Z,100259.59
2023-07-09T21:41:08.583Z,100265.75
2023-07-09T21:43:36.313Z,100262.41
2023-07-09T21:46:04.052Z,100259.00
2023-07-09T21:48:31.984Z,100254.75
2023-07-09T21:50:59.754Z,100259.31
2023-07-09T21:53:55.120Z,100254.09
2023-07-09T21:56:17.630Z,100251.44
2023-07-09T21:58:45.017Z,100252.72
2023-07-09T22:01:16.155Z,100258.09
2023-07-09T22:03:43.991Z,100258.97
2023-07-09T22:06:12.314Z,100252.75
2023-07-09T22:08:47.702Z,100256.22
2023-07-09T22:11:27.851Z,100263.38
2023-07-09T22:13:56.877Z,100260.69
2023-07-09T22:16:28.104Z,100261.66
2023-07-09T22:18:55.690Z,100268.59
2023-07-09T22:21:23.102Z,100256.28
2023-07-09T22:23:58.074Z,100261.63
2023-07-09T22:26:25.504Z,100260.78
2023-07-09T22:28:53.193Z,100258.94
2023-07-09T22:31:20.811Z,100264.22
2023-07-09T22:33:48.291Z,100265.06
2023-07-09T22:36:15.914Z,100255.41
2023-07-09T22:38:43.337Z,100261.59
2023-07-09T22:41:10.962Z,100253.69
2023-07-09T22:43:38.721Z,100258.13
2023-07-09T22:46:06.479Z,100262.53
2023-07-09T22:48:34.149Z,100265.19
2023-07-09T22:51:01.914Z,100270.50
2023-07-09T22:53:29.410Z,100274.91
2023-07-09T22:55:56.824Z,100275.78
2023-07-09T22:58:24.606Z,100266.94
2023-07-09T23:00:56.140Z,100268.72
2023-07-09T23:03:30.907Z,100270.44
2023-07-09T23:05:58.511Z,100251.09
2023-07-09T23:08:28.595Z,100255.50
2023-07-09T23:10:58.365Z,100252.00
2023-07-09T23:13:29.098Z,100257.13
2023-07-09T23:15:56.604Z,100262.56
2023-07-09T23:18:24.130Z,100272.25
2023-07-09T23:20:51.832Z,100263.44
2023-07-09T23:23:19.689Z,100270.53
2023-07-09T23:25:48.257Z,100267.84
2023-07-09T23:28:16.686Z,100261.69
2023-07-09T23:30:44.456Z,100260.81
2023-07-09T23:33:25.318Z,100259.03
2023-07-09T23:35:53.720Z,100252.00
2023-07-09T23:38:21.167Z,100256.41
2023-07-09T23:40:48.720Z,100257.31
2023-07-09T23:43:17.487Z,100256.41
2023-07-09T23:45:45.277Z,100257.28
2023-07-09T23:48:26.069Z,100257.28
2023-07-09T23:50:59.756Z,100249.38
2023-07-09T23:53:33.724Z,100254.66
2023-07-09T23:56:25.721Z,100260.81
2023-07-09T23:58:53.115Z,100258.19
